createdAt,value
2022-11-28T00:00:16.332Z,88.36
2022-11-28T00:01:22.586Z,87.67
2022-11-28T00:02:19.260Z,87.51
2022-11-28T00:03:16.205Z,87.74
2022-11-28T00:04:14.085Z,87.42
2022-11-28T00:05:12.156Z,87.73
2022-11-28T00:06:09.309Z,87.32
2022-11-28T00:07:06.399Z,87.52
2022-11-28T00:08:03.212Z,87.56
2022-11-28T00:08:59.998Z,87.90
2022-11-28T00:09:56.683Z,88.64
2022-11-28T00:10:53.387Z,89.05
2022-11-28T00:11:50.612Z,87.94
2022-11-28T00:12:47.229Z,88.26
2022-11-28T00:13:44.603Z,87.44
2022-11-28T00:14:41.571Z,87.69
2022-11-28T00:15:38.468Z,88.22
2022-11-28T00:16:36.102Z,88.85
2022-11-28T00:17:32.851Z,89.04
2022-11-28T00:18:29.627Z,89.14
2022-11-28T00:19:26.403Z,89.25
2022-11-28T00:20:23.168Z,89.74
2022-11-28T00:21:20.568Z,89.64
2022-11-28T00:22:17.195Z,89.23
2022-11-28T00:23:13.835Z,89.07
2022-11-28T00:24:10.483Z,89.73
2022-11-28T00:25:07.939Z,90.23
2022-11-28T00:26:09.042Z,90.54
2022-11-28T00:27:05.668Z,90.38
2022-11-28T00:28:02.684Z,90.03
2022-11-28T00:29:00.624Z,90.02
2022-11-28T00:29:57.405Z,89.65
2022-11-28T00:30:54.053Z,89.88
2022-11-28T00:31:50.771Z,89.86
2022-11-28T00:32:47.394Z,90.15
2022-11-28T00:33:44.023Z,90.25
2022-11-28T00:34:40.921Z,89.50
2022-11-28T00:35:37.662Z,89.29
2022-11-28T00:36:34.281Z,90.05
2022-11-28T00:37:30.944Z,89.02
2022-11-28T00:38:28.621Z,87.63
2022-11-28T00:39:25.275Z,87.12
2022-11-28T00:40:22.281Z,87.57
2022-11-28T00:41:22.239Z,88.50
2022-11-28T00:42:22.236Z,88.36
2022-11-28T00:43:19.055Z,87.49
2022-11-28T00:44:15.832Z,87.39
2022-11-28T00:45:12.531Z,87.08
2022-11-28T00:46:09.907Z,87.27
2022-11-28T00:47:06.594Z,87.94
2022-11-28T00:48:03.431Z,87.13
2022-11-28T00:49:00.130Z,87.04
2022-11-28T00:49:56.824Z,87.67
2022-11-28T00:51:15.014Z,88.00
2022-11-28T00:52:11.583Z,88.10
2022-11-28T00:53:08.192Z,88.07
2022-11-28T00:54:06.445Z,87.51
2022-11-28T00:55:03.126Z,86.92
2022-11-28T00:55:59.835Z,87.53
2022-11-28T00:56:56.509Z,86.69
2022-11-28T00:57:55.250Z,86.96
2022-11-28T00:58:52.722Z,87.07
2022-11-28T00:59:49.403Z,87.63
2022-11-28T01:00:46.155Z,87.00
2022-11-28T01:01:44.406Z,86.59
2022-11-28T01:02:41.056Z,87.08
2022-11-28T01:03:39.074Z,86.29
2022-11-28T01:04:35.796Z,86.01
2022-11-28T01:05:32.396Z,86.49
2022-11-28T01:06:32.705Z,86.44
2022-11-28T01:07:29.423Z,87.39
2022-11-28T01:08:26.130Z,87.07
2022-11-28T01:09:23.914Z,87.03
2022-11-28T01:10:20.688Z,86.63
2022-11-28T01:11:17.682Z,87.05
2022-11-28T01:12:14.328Z,87.18
2022-11-28T01:13:11.804Z,86.50
2022-11-28T01:14:10.036Z,86.54
2022-11-28T01:15:10.461Z,86.75
2022-11-28T01:16:08.638Z,87.15
2022-11-28T01:17:05.556Z,86.62
2022-11-28T01:18:02.761Z,86.83
2022-11-28T01:18:59.442Z,86.83
2022-11-28T01:19:56.194Z,86.01
2022-11-28T01:20:52.842Z,86.05
2022-11-28T01:21:49.691Z,86.05
2022-11-28T01:22:46.508Z,86.43
2022-11-28T01:23:43.259Z,86.84
2022-11-28T01:24:40.010Z,87.11
2022-11-28T01:25:36.896Z,87.07
2022-11-28T01:26:33.951Z,86.94
2022-11-28T01:27:30.534Z,86.65
2022-11-28T01:28:27.108Z,86.16
2022-11-28T01:29:23.844Z,85.57
2022-11-28T01:30:20.549Z,85.87
2022-11-28T01:31:20.696Z,85.70
2022-11-28T01:32:17.418Z,86.22
2022-11-28T01:33:14.062Z,86.67
2022-11-28T01:34:10.788Z,86.57
2022-11-28T01:35:07.847Z,86.38
2022-11-28T01:36:04.857Z,86.61
2022-11-28T01:37:01.494Z,86.71
2022-11-28T01:37:58.231Z,87.15
2022-11-28T01:38:54.882Z,87.33
2022-11-28T01:39:51.523Z,87.28
2022-11-28T01:40:48.134Z,87.33
2022-11-28T01:41:44.767Z,87.18
2022-11-28T01:42:41.426Z,86.76
2022-11-28T01:43:56.567Z,86.99
2022-11-28T01:44:53.158Z,87.39
2022-11-28T01:45:50.346Z,87.11
2022-11-28T01:46:47.048Z,87.30
2022-11-28T01:47:44.921Z,86.97
2022-11-28T01:48:42.602Z,86.28
2022-11-28T01:49:39.467Z,86.95
2022-11-28T01:50:37.618Z,86.73
2022-11-28T01:51:36.014Z,87.01
2022-11-28T01:52:33.949Z,87.19
2022-11-28T01:53:32.953Z,87.49
2022-11-28T01:54:31.335Z,87.63
2022-11-28T01:55:33.664Z,87.12
2022-11-28T01:56:38.432Z,86.99
2022-11-28T01:57:35.232Z,86.54
2022-11-28T01:58:34.998Z,86.97
2022-11-28T01:59:37.459Z,86.87
2022-11-28T02:00:34.958Z,86.34
2022-11-28T02:01:31.875Z,86.77
2022-11-28T02:02:52.252Z,86.65
2022-11-28T02:03:50.488Z,87.46
2022-11-28T02:04:48.559Z,87.36
2022-11-28T02:05:45.768Z,87.00
2022-11-28T02:06:43.440Z,86.87
2022-11-28T02:07:40.369Z,86.55
2022-11-28T02:08:37.541Z,86.91
2022-11-28T02:09:34.199Z,86.87
2022-11-28T02:10:47.356Z,86.91
2022-11-28T02:12:01.734Z,87.08
2022-11-28T02:13:07.022Z,86.40
2022-11-28T02:14:18.690Z,86.62
2022-11-28T02:15:20.855Z,86.81
2022-11-28T02:16:32.556Z,87.13
2022-11-28T02:17:41.155Z,86.67
2022-11-28T02:18:50.589Z,87.28
2022-11-28T02:20:17.354Z,86.86
2022-11-28T02:21:18.533Z,86.87
2022-11-28T02:22:48.390Z,87.09
2022-11-28T02:24:02.034Z,86.99
2022-11-28T02:25:10.904Z,87.26
2022-11-28T02:26:45.258Z,87.30
2022-11-28T02:27:44.844Z,86.63
2022-11-28T02:28:47.427Z,87.04
2022-11-28T02:29:51.471Z,87.21
2022-11-28T02:31:15.899Z,87.50
2022-11-28T02:32:21.389Z,87.32
2022-11-28T02:33:32.841Z,87.03
2022-11-28T02:34:47.632Z,86.38
2022-11-28T02:36:03.814Z,86.32
2022-11-28T02:37:09.902Z,86.23
2022-11-28T02:39:00.693Z,85.37
2022-11-28T02:40:21.404Z,86.08
2022-11-28T02:41:27.011Z,85.99
2022-11-28T02:42:33.866Z,86.11
2022-11-28T02:43:43.325Z,86.28
2022-11-28T02:44:50.183Z,86.55
2022-11-28T02:45:52.590Z,86.21
2022-11-28T02:46:56.436Z,86.27
2022-11-28T02:48:03.448Z,84.85
2022-11-28T02:49:08.334Z,84.90
2022-11-28T02:50:22.451Z,85.19
2022-11-28T02:51:27.323Z,85.39
2022-11-28T02:52:29.015Z,85.75
2022-11-28T02:53:29.064Z,84.67
2022-11-28T02:54:27.426Z,84.99
2022-11-28T02:55:24.915Z,85.52
2022-11-28T02:56:24.158Z,84.82
2022-11-28T02:57:20.829Z,85.26
2022-11-28T02:58:18.672Z,85.04
2022-11-28T02:59:45.971Z,85.77
2022-11-28T03:00:44.851Z,85.88
2022-11-28T03:01:42.410Z,85.08
2022-11-28T03:02:39.647Z,84.67
2022-11-28T03:04:12.851Z,85.39
2022-11-28T03:05:26.746Z,84.95
2022-11-28T03:06:26.396Z,84.39
2022-11-28T03:08:00.846Z,85.07
2022-11-28T03:09:23.239Z,84.96
2022-11-28T03:10:35.769Z,85.57
2022-11-28T03:12:01.250Z,85.80
2022-11-28T03:13:26.845Z,85.43
2022-11-28T03:14:26.244Z,85.51
2022-11-28T03:15:35.213Z,85.73
2022-11-28T03:16:45.361Z,85.62
2022-11-28T03:17:53.898Z,85.30
2022-11-28T03:19:27.818Z,85.56
2022-11-28T03:20:33.783Z,85.77
2022-11-28T03:21:45.393Z,85.26
2022-11-28T03:23:05.624Z,85.02
2022-11-28T03:24:10.612Z,84.73
2022-11-28T03:25:25.243Z,84.88
2022-11-28T03:26:47.165Z,84.66
2022-11-28T03:27:53.852Z,84.62
2022-11-28T03:29:03.198Z,85.09
2022-11-28T03:30:11.626Z,84.54
2022-11-28T03:31:14.152Z,84.66
2022-11-28T03:32:16.179Z,84.65
2022-11-28T03:33:16.382Z,85.01
2022-11-28T03:34:17.437Z,84.91
2022-11-28T03:35:19.472Z,84.86
2022-11-28T03:36:24.474Z,84.49
2022-11-28T03:37:27.588Z,84.06
2022-11-28T03:38:37.284Z,84.49
2022-11-28T03:39:38.970Z,84.10
2022-11-28T03:40:47.529Z,84.50
2022-11-28T03:42:02.387Z,84.04
2022-11-28T03:43:04.096Z,83.85
2022-11-28T03:44:03.923Z,84.05
2022-11-28T03:45:16.231Z,83.56
2022-11-28T03:46:18.399Z,83.04
2022-11-28T03:47:15.629Z,83.25
2022-11-28T03:48:30.030Z,83.02
2022-11-28T03:49:50.481Z,83.63
2022-11-28T03:51:03.679Z,83.46
2022-11-28T03:52:06.349Z,83.74
2022-11-28T03:53:09.515Z,84.20
2022-11-28T03:54:15.467Z,83.39
2022-11-28T03:55:19.250Z,83.84
2022-11-28T03:56:23.086Z,84.37
2022-11-28T03:57:40.309Z,83.83
2022-11-28T03:58:43.846Z,83.43
2022-11-28T03:59:46.213Z,83.70
2022-11-28T04:00:49.575Z,82.51
2022-11-28T04:01:47.496Z,83.19
2022-11-28T04:02:56.523Z,83.14
2022-11-28T04:04:16.559Z,82.79
2022-11-28T04:05:24.966Z,82.79
2022-11-28T04:06:36.662Z,82.59
2022-11-28T04:08:07.393Z,84.08
2022-11-28T04:09:14.324Z,82.78
2022-11-28T04:10:29.165Z,82.37
2022-11-28T04:11:31.428Z,82.60
2022-11-28T04:12:46.128Z,82.49
2022-11-28T04:13:51.944Z,82.44
2022-11-28T04:15:03.777Z,82.26
2022-11-28T04:16:19.463Z,82.95
2022-11-28T04:17:24.239Z,82.79
2022-11-28T04:18:38.122Z,82.76
2022-11-28T04:19:41.999Z,81.86
2022-11-28T04:20:47.865Z,81.82
2022-11-28T04:22:05.208Z,82.53
2022-11-28T04:23:09.498Z,83.05
2022-11-28T04:24:12.705Z,82.50
2022-11-28T04:25:13.924Z,82.99
2022-11-28T04:26:33.553Z,82.76
2022-11-28T04:27:40.088Z,81.93
2022-11-28T04:28:38.326Z,82.05
2022-11-28T04:29:43.466Z,82.12
2022-11-28T04:30:42.936Z,82.01
2022-11-28T04:31:42.799Z,80.09
2022-11-28T04:32:46.639Z,81.72
2022-11-28T04:33:48.098Z,81.89
2022-11-28T04:34:49.563Z,81.43
2022-11-28T04:35:51.522Z,82.76
2022-11-28T04:36:49.353Z,82.13
2022-11-28T04:37:48.830Z,81.77
2022-11-28T04:38:54.354Z,82.10
2022-11-28T04:39:52.461Z,83.66
2022-11-28T04:40:55.989Z,84.61
2022-11-28T04:41:55.960Z,85.28
2022-11-28T04:43:00.683Z,86.30
2022-11-28T04:44:09.677Z,87.15
2022-11-28T04:45:13.036Z,88.00
2022-11-28T04:46:14.925Z,88.63
2022-11-28T04:47:11.905Z,89.25
2022-11-28T04:48:08.661Z,89.66
2022-11-28T04:49:05.403Z,90.49
2022-11-28T04:50:02.122Z,90.55
2022-11-28T04:51:12.315Z,90.93
2022-11-28T04:52:20.242Z,91.09
2022-11-28T04:53:22.531Z,91.50
2022-11-28T04:54:26.771Z,91.47
2022-11-28T04:55:39.310Z,91.77
2022-11-28T04:56:47.217Z,91.69
2022-11-28T04:57:57.053Z,92.28
2022-11-28T04:58:54.133Z,91.73
2022-11-28T04:59:51.953Z,92.15
2022-11-28T05:00:52.508Z,92.08
2022-11-28T05:01:50.270Z,91.79
2022-11-28T05:02:51.410Z,91.72
2022-11-28T05:03:48.652Z,91.72
2022-11-28T05:04:45.610Z,92.10
2022-11-28T05:05:51.201Z,92.24
2022-11-28T05:06:48.088Z,92.52
2022-11-28T05:07:44.789Z,92.91
2022-11-28T05:08:42.290Z,92.87
2022-11-28T05:09:39.662Z,92.43
2022-11-28T05:10:36.510Z,92.57
2022-11-28T05:11:33.202Z,92.77
2022-11-28T05:12:30.386Z,93.24
2022-11-28T05:13:27.063Z,93.57
2022-11-28T05:14:23.866Z,93.87
2022-11-28T05:15:20.454Z,94.10
2022-11-28T05:16:17.510Z,94.26
2022-11-28T05:17:14.238Z,94.02
2022-11-28T05:18:10.894Z,93.89
2022-11-28T05:19:07.534Z,93.50
2022-11-28T05:20:06.417Z,92.95
2022-11-28T05:21:03.065Z,92.64
2022-11-28T05:21:59.724Z,92.31
2022-11-28T05:22:56.312Z,91.89
2022-11-28T05:23:52.854Z,92.10
2022-11-28T05:24:49.454Z,92.08
2022-11-28T05:25:46.085Z,92.17
2022-11-28T05:26:43.319Z,92.43
2022-11-28T05:27:40.055Z,92.28
2022-11-28T05:28:36.758Z,92.77
2022-11-28T05:29:33.695Z,93.23
2022-11-28T05:30:30.304Z,92.91
2022-11-28T05:31:26.968Z,93.16
2022-11-28T05:32:23.585Z,93.05
2022-11-28T05:33:20.175Z,92.84
2022-11-28T05:34:16.784Z,92.95
2022-11-28T05:35:13.706Z,92.65
2022-11-28T05:36:13.412Z,92.39
2022-11-28T05:37:10.216Z,92.23
2022-11-28T05:38:12.120Z,91.75
2022-11-28T05:39:10.170Z,91.56
2022-11-28T05:40:07.580Z,91.43
2022-11-28T05:41:04.407Z,91.67
2022-11-28T05:42:01.010Z,92.13
2022-11-28T05:42:57.622Z,92.21
2022-11-28T05:43:56.336Z,92.71
2022-11-28T05:44:53.078Z,92.94
2022-11-28T05:45:49.702Z,93.09
2022-11-28T05:46:46.558Z,93.34
2022-11-28T05:47:43.115Z,93.01
2022-11-28T05:48:39.783Z,93.49
2022-11-28T05:49:36.463Z,93.11
2022-11-28T05:50:38.495Z,93.30
2022-11-28T05:51:36.427Z,93.56
2022-11-28T05:52:33.066Z,93.67
2022-11-28T05:53:29.774Z,93.34
2022-11-28T05:54:26.605Z,93.17
2022-11-28T05:55:23.280Z,92.73
2022-11-28T05:56:23.102Z,92.53
2022-11-28T05:57:19.751Z,91.96
2022-11-28T05:58:16.338Z,91.50
2022-11-28T05:59:13.997Z,90.56
2022-11-28T06:00:11.213Z,91.16
2022-11-28T06:01:15.714Z,90.32
2022-11-28T06:02:12.448Z,90.51
2022-11-28T06:03:09.170Z,90.16
2022-11-28T06:04:05.762Z,90.29
2022-11-28T06:05:20.969Z,89.88
2022-11-28T06:06:22.420Z,90.09
2022-11-28T06:07:19.993Z,90.40
2022-11-28T06:08:16.699Z,90.41
2022-11-28T06:09:14.103Z,90.45
2022-11-28T06:10:10.930Z,90.78
2022-11-28T06:11:07.651Z,90.81
2022-11-28T06:12:04.781Z,91.31
2022-11-28T06:13:03.024Z,92.05
2022-11-28T06:14:00.115Z,92.13
2022-11-28T06:14:56.695Z,91.58
2022-11-28T06:15:53.379Z,90.77
2022-11-28T06:16:50.092Z,89.89
2022-11-28T06:17:46.728Z,89.87
2022-11-28T06:18:43.861Z,90.00
2022-11-28T06:19:40.683Z,89.99
2022-11-28T06:20:37.513Z,89.61
2022-11-28T06:21:34.173Z,89.88
2022-11-28T06:22:30.894Z,89.87
2022-11-28T06:23:27.544Z,89.80
2022-11-28T06:24:24.144Z,90.15
2022-11-28T06:25:20.767Z,90.39
2022-11-28T06:26:21.189Z,90.38
2022-11-28T06:27:17.895Z,90.67
2022-11-28T06:28:14.449Z,90.65
2022-11-28T06:29:11.035Z,91.17
2022-11-28T06:30:08.151Z,90.98
2022-11-28T06:31:05.581Z,91.27
2022-11-28T06:32:02.258Z,91.67
2022-11-28T06:32:58.906Z,92.13
2022-11-28T06:33:56.165Z,92.37
2022-11-28T06:34:52.734Z,92.28
2022-11-28T06:35:49.332Z,92.37
2022-11-28T06:36:46.042Z,92.22
2022-11-28T06:37:42.738Z,92.02
2022-11-28T06:38:39.569Z,92.22
2022-11-28T06:39:36.754Z,91.42
2022-11-28T06:40:33.368Z,91.70
2022-11-28T06:41:29.950Z,91.62
2022-11-28T06:42:26.609Z,91.19
2022-11-28T06:43:23.192Z,90.71
2022-11-28T06:44:19.761Z,91.23
2022-11-28T06:45:16.545Z,91.28
2022-11-28T06:46:18.999Z,90.84
2022-11-28T06:47:15.566Z,91.24
2022-11-28T06:48:12.133Z,91.37
2022-11-28T06:49:11.687Z,91.50
2022-11-28T06:50:09.859Z,91.22
2022-11-28T06:51:07.355Z,91.58
2022-11-28T06:52:04.061Z,92.16
2022-11-28T06:53:00.665Z,91.89
2022-11-28T06:53:57.315Z,91.76
2022-11-28T06:54:53.945Z,92.21
2022-11-28T06:55:50.549Z,91.18
2022-11-28T06:56:47.126Z,91.03
2022-11-28T06:57:43.890Z,90.61
2022-11-28T06:58:41.374Z,90.69
2022-11-28T06:59:38.123Z,90.42
2022-11-28T07:00:35.372Z,90.50
2022-11-28T07:01:32.609Z,90.72
2022-11-28T07:02:29.307Z,90.89
2022-11-28T07:03:26.005Z,90.42
2022-11-28T07:04:22.625Z,90.31
2022-11-28T07:05:19.506Z,89.65
2022-11-28T07:06:19.311Z,89.60
2022-11-28T07:07:16.808Z,89.82
2022-11-28T07:08:13.797Z,89.32
2022-11-28T07:09:10.704Z,88.70
2022-11-28T07:10:07.904Z,88.58
2022-11-28T07:11:15.001Z,88.19
2022-11-28T07:12:11.600Z,88.18
2022-11-28T07:13:09.334Z,88.57
2022-11-28T07:14:06.083Z,88.73
2022-11-28T07:15:02.802Z,89.52
2022-11-28T07:15:59.519Z,89.24
2022-11-28T07:16:56.171Z,89.58
2022-11-28T07:17:53.351Z,88.87
2022-11-28T07:18:50.732Z,87.21
2022-11-28T07:19:53.501Z,87.11
2022-11-28T07:20:51.534Z,86.86
2022-11-28T07:21:48.904Z,86.83
2022-11-28T07:22:47.774Z,87.23
2022-11-28T07:23:45.137Z,87.57
2022-11-28T07:24:41.708Z,87.63
2022-11-28T07:25:38.378Z,87.54
2022-11-28T07:26:38.130Z,88.07
2022-11-28T07:27:34.892Z,88.41
2022-11-28T07:28:32.723Z,88.14
2022-11-28T07:29:35.970Z,87.94
2022-11-28T07:30:32.764Z,88.12
2022-11-28T07:31:32.399Z,87.62
2022-11-28T07:32:29.277Z,87.70
2022-11-28T07:33:25.912Z,87.23
2022-11-28T07:34:22.577Z,86.96
2022-11-28T07:35:19.281Z,87.18
2022-11-28T07:36:19.074Z,87.34
2022-11-28T07:37:16.176Z,87.32
2022-11-28T07:38:12.750Z,87.61
2022-11-28T07:39:13.716Z,87.64
2022-11-28T07:40:10.642Z,88.10
2022-11-28T07:41:11.143Z,87.66
2022-11-28T07:42:07.744Z,84.85
2022-11-28T07:43:04.374Z,83.28
2022-11-28T07:44:03.155Z,80.77
2022-11-28T07:44:59.892Z,80.68
2022-11-28T07:46:00.932Z,80.96
2022-11-28T07:46:58.299Z,81.88
2022-11-28T07:47:54.998Z,82.37
2022-11-28T07:48:51.798Z,82.64
2022-11-28T07:49:48.326Z,83.93
2022-11-28T07:50:44.947Z,83.97
2022-11-28T07:51:42.342Z,83.28
2022-11-28T07:52:39.069Z,81.59
2022-11-28T07:53:36.633Z,83.34
2022-11-28T07:54:33.190Z,84.38
2022-11-28T07:55:29.807Z,85.72
2022-11-28T07:56:44.247Z,84.37
2022-11-28T07:57:46.244Z,83.29
2022-11-28T07:58:45.332Z,83.57
2022-11-28T07:59:42.177Z,83.48
2022-11-28T08:00:39.244Z,81.39
2022-11-28T08:01:36.680Z,82.33
2022-11-28T08:02:33.469Z,81.05
2022-11-28T08:03:30.119Z,80.47
2022-11-28T08:04:26.862Z,81.82
2022-11-28T08:05:23.567Z,82.32
2022-11-28T08:06:23.318Z,81.84
2022-11-28T08:07:20.032Z,81.32
2022-11-28T08:08:17.591Z,80.37
2022-11-28T08:09:14.195Z,80.38
2022-11-28T08:10:11.004Z,81.18
2022-11-28T08:11:09.190Z,81.12
2022-11-28T08:13:07.947Z,79.83
2022-11-28T08:14:05.507Z,79.03
2022-11-28T08:15:02.105Z,79.37
2022-11-28T08:15:58.853Z,80.99
2022-11-28T08:16:55.530Z,78.99
2022-11-28T08:17:52.290Z,79.64
2022-11-28T08:18:50.243Z,79.30
2022-11-28T08:19:46.833Z,78.71
2022-11-28T08:20:43.408Z,78.26
2022-11-28T08:21:40.025Z,78.02
2022-11-28T08:22:36.625Z,79.03
2022-11-28T08:23:34.685Z,78.37
2022-11-28T08:24:31.368Z,78.23
2022-11-28T08:25:28.085Z,77.26
2022-11-28T08:26:30.369Z,78.84
2022-11-28T08:27:27.757Z,80.50
2022-11-28T08:28:24.997Z,81.05
2022-11-28T08:29:21.710Z,79.59
2022-11-28T08:30:18.438Z,79.67
2022-11-28T08:31:24.424Z,79.16
2022-11-28T08:32:21.161Z,79.89
2022-11-28T08:33:17.743Z,79.24
2022-11-28T08:34:14.661Z,77.44
2022-11-28T08:35:11.241Z,77.81
2022-11-28T08:36:09.783Z,77.88
2022-11-28T08:37:06.404Z,76.82
2022-11-28T08:38:03.156Z,77.97
2022-11-28T08:39:22.764Z,78.66
2022-11-28T08:40:17.859Z,78.38
2022-11-28T08:41:18.718Z,75.24
2022-11-28T08:42:15.438Z,76.92
2022-11-28T08:43:12.072Z,77.21
2022-11-28T08:44:08.699Z,79.34
2022-11-28T08:45:06.564Z,77.03
2022-11-28T08:46:04.188Z,78.79
2022-11-28T08:47:00.916Z,78.25
2022-11-28T08:47:58.980Z,77.94
2022-11-28T08:48:55.572Z,78.97
2022-11-28T08:49:52.283Z,78.24
2022-11-28T08:50:49.684Z,76.99
2022-11-28T08:51:46.554Z,76.72
2022-11-28T08:52:43.196Z,76.58
2022-11-28T08:53:40.402Z,75.44
2022-11-28T08:54:37.247Z,75.84
2022-11-28T08:55:35.579Z,76.34
2022-11-28T08:56:36.019Z,76.16
2022-11-28T08:57:32.649Z,75.39
2022-11-28T08:58:29.394Z,76.76
2022-11-28T08:59:25.962Z,74.18
2022-11-28T09:00:22.630Z,73.58
2022-11-28T09:01:22.069Z,74.01
2022-11-28T09:02:24.475Z,72.36
2022-11-28T09:03:22.559Z,73.36
2022-11-28T09:04:19.516Z,75.22
2022-11-28T09:05:16.115Z,76.85
2022-11-28T09:06:13.286Z,77.10
2022-11-28T09:07:09.868Z,74.77
2022-11-28T09:08:10.208Z,74.81
2022-11-28T09:09:09.229Z,74.79
2022-11-28T09:10:06.567Z,76.79
2022-11-28T09:11:03.396Z,74.66
2022-11-28T09:12:00.063Z,73.78
2022-11-28T09:12:56.736Z,74.72
2022-11-28T09:13:53.368Z,73.87
2022-11-28T09:14:50.001Z,73.16
2022-11-28T09:15:50.065Z,73.98
2022-11-28T09:16:50.379Z,74.65
2022-11-28T09:17:47.236Z,73.46
2022-11-28T09:18:43.938Z,74.05
2022-11-28T09:19:40.977Z,72.95
2022-11-28T09:20:37.899Z,73.29
2022-11-28T09:21:34.946Z,73.75
2022-11-28T09:22:33.681Z,72.24
2022-11-28T09:23:30.485Z,74.00
2022-11-28T09:24:27.126Z,73.11
2022-11-28T09:25:23.918Z,73.29
2022-11-28T09:26:22.721Z,74.74
2022-11-28T09:27:19.302Z,75.49
2022-11-28T09:28:16.401Z,73.25
2022-11-28T09:29:13.073Z,74.22
2022-11-28T09:30:10.053Z,74.03
2022-11-28T09:31:07.786Z,73.44
2022-11-28T09:32:04.836Z,73.72
2022-11-28T09:33:01.647Z,73.69
2022-11-28T09:33:58.323Z,73.84
2022-11-28T09:34:54.905Z,73.94
2022-11-28T09:35:51.489Z,73.61
2022-11-28T09:36:50.195Z,73.59
2022-11-28T09:37:47.111Z,75.02
2022-11-28T09:38:44.177Z,73.90
2022-11-28T09:40:04.720Z,73.28
2022-11-28T09:40:57.676Z,73.69
2022-11-28T09:42:27.215Z,73.84
2022-11-28T09:43:34.927Z,73.15
2022-11-28T09:44:43.134Z,72.18
2022-11-28T09:45:40.307Z,72.06
2022-11-28T09:46:38.897Z,71.55
2022-11-28T09:47:37.638Z,72.63
2022-11-28T09:48:38.805Z,71.18
2022-11-28T09:49:44.839Z,73.13
2022-11-28T09:50:42.911Z,72.08
2022-11-28T09:51:54.610Z,70.96
2022-11-28T09:53:03.699Z,71.68
2022-11-28T09:54:12.609Z,72.86
2022-11-28T09:55:12.345Z,71.38
2022-11-28T09:56:16.793Z,69.36
2022-11-28T09:57:34.981Z,70.96
2022-11-28T09:58:53.195Z,70.07
2022-11-28T09:59:49.780Z,71.28
2022-11-28T10:00:55.373Z,69.45
2022-11-28T10:02:13.786Z,70.47
2022-11-28T10:03:36.119Z,69.89
2022-11-28T10:04:44.348Z,69.99
2022-11-28T10:05:48.850Z,69.00
2022-11-28T10:07:02.792Z,68.22
2022-11-28T10:08:10.901Z,67.95
2022-11-28T10:09:30.693Z,67.97
2022-11-28T10:11:06.268Z,70.70
2022-11-28T10:12:24.168Z,69.38
2022-11-28T10:13:46.993Z,68.45
2022-11-28T10:15:40.274Z,68.64
2022-11-28T10:16:55.107Z,69.05
2022-11-28T10:18:00.962Z,70.07
2022-11-28T10:19:03.958Z,68.92
2022-11-28T10:20:12.228Z,68.75
2022-11-28T10:21:42.376Z,69.40
2022-11-28T10:22:53.876Z,70.62
2022-11-28T10:23:54.907Z,70.58
2022-11-28T10:24:57.713Z,70.28
2022-11-28T10:25:59.526Z,69.74
2022-11-28T10:27:03.354Z,68.66
2022-11-28T10:28:00.068Z,69.68
2022-11-28T10:29:00.296Z,70.04
2022-11-28T10:30:03.080Z,68.32
2022-11-28T10:31:05.673Z,70.05
2022-11-28T10:32:04.756Z,69.13
2022-11-28T10:33:13.851Z,72.00
2022-11-28T10:34:40.231Z,71.57
2022-11-28T10:35:47.693Z,71.22
2022-11-28T10:36:57.173Z,72.06
2022-11-28T10:37:55.425Z,72.20
2022-11-28T10:38:52.135Z,72.06
2022-11-28T10:39:48.814Z,72.30
2022-11-28T10:40:55.878Z,72.88
2022-11-28T10:42:27.189Z,73.03
2022-11-28T10:43:38.331Z,73.08
2022-11-28T10:44:58.485Z,71.61
2022-11-28T10:46:08.299Z,72.39
2022-11-28T10:47:33.573Z,73.97
2022-11-28T10:48:45.209Z,75.07
2022-11-28T10:50:01.283Z,73.42
2022-11-28T10:51:26.451Z,72.83
2022-11-28T10:52:26.137Z,74.37
2022-11-28T10:53:51.932Z,74.34
2022-11-28T10:54:57.480Z,74.88
2022-11-28T10:56:11.085Z,76.07
2022-11-28T10:57:26.524Z,75.21
2022-11-28T10:58:59.493Z,74.25
2022-11-28T11:00:13.121Z,74.32
2022-11-28T11:01:10.598Z,74.90
2022-11-28T11:02:41.212Z,74.49
2022-11-28T11:03:39.577Z,75.49
2022-11-28T11:04:38.560Z,73.52
2022-11-28T11:05:36.937Z,73.60
2022-11-28T11:06:41.863Z,73.68
2022-11-28T11:07:56.405Z,74.11
2022-11-28T11:08:53.406Z,74.78
2022-11-28T11:09:50.162Z,73.39
2022-11-28T11:11:02.369Z,73.50
2022-11-28T11:12:01.071Z,74.86
2022-11-28T11:12:58.977Z,74.11
2022-11-28T11:14:02.720Z,74.33
2022-11-28T11:14:59.458Z,73.67
2022-11-28T11:16:11.648Z,74.74
2022-11-28T11:17:35.880Z,73.93
2022-11-28T11:18:35.182Z,73.45
2022-11-28T11:19:38.540Z,73.61
2022-11-28T11:20:40.320Z,73.37
2022-11-28T11:21:36.997Z,73.82
2022-11-28T11:22:33.740Z,74.55
2022-11-28T11:23:33.986Z,74.57
2022-11-28T11:24:34.746Z,74.92
2022-11-28T11:25:34.734Z,74.56
2022-11-28T11:26:37.390Z,73.41
2022-11-28T11:27:36.085Z,74.25
2022-11-28T11:28:47.077Z,74.82
2022-11-28T11:29:45.077Z,74.44
2022-11-28T11:30:42.947Z,75.09
2022-11-28T11:31:44.455Z,74.77
2022-11-28T11:32:41.137Z,74.87
2022-11-28T11:33:38.241Z,74.41
2022-11-28T11:34:44.274Z,74.87
2022-11-28T11:35:48.119Z,75.01
2022-11-28T11:36:44.936Z,75.05
2022-11-28T11:37:41.542Z,74.52
2022-11-28T11:38:39.272Z,74.29
2022-11-28T11:39:50.788Z,75.40
2022-11-28T11:40:51.023Z,74.39
2022-11-28T11:41:59.697Z,75.71
2022-11-28T11:42:58.752Z,75.33
2022-11-28T11:43:56.817Z,74.69
2022-11-28T11:44:53.900Z,75.48
2022-11-28T11:46:14.152Z,74.14
2022-11-28T11:47:11.080Z,74.51
2022-11-28T11:48:11.831Z,73.83
2022-11-28T11:49:28.583Z,73.69
2022-11-28T11:50:28.065Z,73.16
2022-11-28T11:51:36.486Z,74.23
2022-11-28T11:52:35.864Z,73.72
2022-11-28T11:53:32.453Z,73.09
2022-11-28T11:54:29.254Z,72.78
2022-11-28T11:55:28.785Z,74.05
2022-11-28T11:56:25.979Z,72.81
2022-11-28T11:57:33.083Z,72.16
2022-11-28T11:58:46.802Z,71.77
2022-11-28T11:59:55.108Z,72.29
2022-11-28T12:00:55.939Z,73.32
2022-11-28T12:01:58.879Z,72.43
2022-11-28T12:03:01.977Z,73.07
2022-11-28T12:04:17.749Z,72.87
2022-11-28T12:05:18.714Z,73.57
2022-11-28T12:06:28.443Z,72.74
2022-11-28T12:07:37.017Z,71.89
2022-11-28T12:08:35.828Z,73.85
2022-11-28T12:09:45.098Z,74.19
2022-11-28T12:10:50.647Z,73.90
2022-11-28T12:11:54.210Z,73.36
2022-11-28T12:12:50.958Z,73.12
2022-11-28T12:13:48.296Z,73.85
2022-11-28T12:14:47.872Z,74.12
2022-11-28T12:15:47.301Z,74.48
2022-11-28T12:19:10.406Z,74.24
2022-11-28T12:20:44.463Z,73.54
2022-11-28T12:22:28.697Z,74.48
2022-11-28T12:23:33.962Z,75.33
2022-11-28T12:25:05.089Z,74.79
2022-11-28T12:26:26.039Z,74.47
2022-11-28T12:27:52.298Z,75.61
2022-11-28T12:29:33.365Z,74.74
2022-11-28T12:30:51.572Z,74.44
2022-11-28T12:32:15.281Z,75.36
2022-11-28T12:33:11.716Z,75.56
2022-11-28T12:34:30.068Z,75.41
2022-11-28T12:36:05.305Z,74.97
2022-11-28T12:37:13.562Z,75.79
2022-11-28T12:38:13.548Z,75.12
2022-11-28T12:39:32.079Z,75.35
2022-11-28T12:40:42.918Z,75.72
2022-11-28T12:41:48.112Z,75.01
2022-11-28T12:42:56.896Z,74.76
2022-11-28T12:44:32.826Z,74.97
2022-11-28T12:45:33.581Z,75.29
2022-11-28T12:46:42.720Z,76.09
2022-11-28T12:48:07.085Z,75.74
2022-11-28T12:49:17.648Z,76.00
2022-11-28T12:50:30.970Z,75.51
2022-11-28T12:51:54.930Z,74.83
2022-11-28T12:52:51.670Z,75.08
2022-11-28T12:54:06.413Z,75.62
2022-11-28T12:55:17.540Z,74.51
2022-11-28T12:56:48.761Z,75.68
2022-11-28T12:57:53.152Z,76.43
2022-11-28T12:59:22.373Z,75.50
2022-11-28T13:00:22.452Z,74.76
2022-11-28T13:01:33.950Z,74.12
2022-11-28T13:02:33.337Z,75.34
2022-11-28T13:03:57.167Z,75.28
2022-11-28T13:04:56.516Z,75.09
2022-11-28T13:06:02.085Z,75.57
2022-11-28T13:07:26.925Z,74.95
2022-11-28T13:08:48.418Z,75.21
2022-11-28T13:10:02.539Z,75.52
2022-11-28T13:11:24.137Z,76.33
2022-11-28T13:12:46.159Z,75.44
2022-11-28T13:13:53.592Z,75.51
2022-11-28T13:15:14.943Z,75.46
2022-11-28T13:16:30.113Z,75.42
2022-11-28T13:17:44.847Z,76.60
2022-11-28T13:18:47.808Z,76.13
2022-11-28T13:20:02.802Z,76.10
2022-11-28T13:21:19.599Z,76.26
2022-11-28T13:22:23.488Z,75.27
2022-11-28T13:23:34.213Z,75.07
2022-11-28T13:24:42.342Z,76.10
2022-11-28T13:25:44.736Z,76.43
2022-11-28T13:26:46.286Z,76.01
2022-11-28T13:27:51.799Z,76.62
2022-11-28T13:29:27.298Z,76.75
2022-11-28T13:30:32.073Z,76.53